Latest Coastal Weather Observations for Melbourne (Olympic Park)

IDV60701

Issued at 5:42 am EDT Monday 20 February 2017 (issued every 10 minutes, with the page automatically refreshed every 10 minutes)

About coastal observations | Map of coastal stations | Coastal observations for VIC | Marine services | Other Formats
Station Details ID: 086338 Name: MELBOURNE (OLYMPIC PARK) Lat: -37.83 Lon: 144.98 Height: 7.53 m
Data from the previous 72 hours. | See also: Recent months at Melbourne (Olympic Park)
Date/Time
EDT
Temp
°C
Wind Pressure Rain since
9am
mm
Weather Cloud Vis
km
Sea
Height
m
Swell
Dir  Spd
kts
Gust
kts
hPa Trend Height
m
Period
s
Dir
20/05:30am 12.0 WNW 7 13 1010.7 - 3.6 - - 10 - - - -
20/05:00am 11.8 W 6 12 1010.4 - 3.6 - - 10 - - - -
20/04:30am 12.2 WNW 6 11 1010.4 - 3.2 - - 10 - - - -
20/04:00am 12.4 W 6 11 1010.3 - 3.0 - - 10 - - - -
20/03:30am 12.3 NW 6 10 1010.2 - 3.0 - - 10 - - - -
20/03:00am 12.2 WNW 5 9 1010.3 - 3.0 Showers - 10 - - - -
20/02:30am 11.8 WNW 5 7 1010.3 - 3.0 - - 10 - - - -
20/02:00am 11.8 WNW 6 11 1010.5 - 2.8 - - 10 - - - -
20/01:30am 12.0 WNW 5 8 1010.6 - 2.6 - - 10 - - - -
20/01:00am 12.0 W 6 11 1010.5 - 2.6 - - 10 - - - -
20/12:30am 12.1 NW 6 9 1010.7 - 2.6 - - 10 - - - -
20/12:00am 12.1 WNW 7 12 1010.7 - 2.6 - - 10 - - - -
 
Date/Time
EDT
Temp
°C
Wind Pressure Rain since
9am
mm
Weather Cloud Vis
km
Sea
Height
m
Swell
Dir  Spd
kts
Gust
kts
hPa Trend Height
m
Period
s
Dir
19/11:30pm 12.4 WNW 7 10 1010.7 - 2.6 - - 10 - - - -
19/11:00pm 12.6 WNW 6 14 1010.8 - 2.6 - - 10 - - - -
19/10:30pm 12.6 WNW 5 10 1010.7 - 2.6 - - 10 - - - -
19/10:00pm 12.9 W 5 11 1010.5 - 2.6 - - 10 - - - -
19/09:30pm 12.9 WNW 3 7 1010.4 - 2.6 - - 10 - - - -
19/09:00pm 12.9 WNW 5 10 1010.2 - 2.6 - - 10 - - - -
19/08:30pm 12.7 WNW 5 11 1009.8 - 2.6 - - 10 - - - -
19/08:00pm 12.7 W 5 11 1009.4 - 2.6 - - 10 - - - -
19/07:30pm 12.3 W 7 13 1009.3 - 2.6 - - 10 - - - -
19/07:00pm 13.7 W 6 13 1008.9 - 2.4 - - 10 - - - -
19/06:30pm 14.6 SW 7 16 1008.7 - 2.4 - - 10 - - - -
19/06:00pm 14.6 SW 9 20 1008.6 - 2.4 - - 10 - - - -
19/05:30pm 16.7 WNW 8 15 1007.9 - 2.4 - - 10 - - - -
19/05:00pm 15.8 WNW 7 11 1008.1 - 2.4 - - 10 - - - -
19/04:30pm 13.9 SW 4 9 1008.4 - 2.4 - - 10 - - - -
19/04:00pm 15.8 NW 6 11 1008.0 - 2.0 - - 10 - - - -
19/03:30pm 14.4 NW 4 11 1008.4 - 2.0 - - 10 - - - -
19/03:00pm 16.4 W 6 13 1008.1 - 1.6 - - 10 - - - -
19/02:30pm 16.7 W 7 13 1008.3 - 1.6 - - 10 - - - -
19/02:00pm 15.9 NW 8 14 1008.6 - 1.6 - - 10 - - - -
19/01:30pm 14.9 WNW 7 12 1009.0 - 1.6 - - 10 - - - -
19/01:00pm 13.8 W 4 9 1009.4 - 1.6 - - 10 - - - -
19/12:51pm 13.4 WNW 6 12 1009.5 - 1.6 - - 10 - - - -
19/12:40pm 13.0 W 10 20 1009.7 - 1.4 - - 7 - - - -
19/12:30pm 14.5 W 7 14 1009.7 - 1.0 - - 10 - - - -
19/12:00pm 14.2 W 5 9 1009.8 - 1.0 Showers - 10 - - - -
19/11:30am 13.8 WNW 5 8 1010.1 - 0.8 - - 10 - - - -
19/11:27am 13.8 NW 5 11 1010.1 - 0.8 - - 10 - - - -
19/11:05am 13.5 W 5 9 1010.5 - 0.6 - - 7 - - - -
19/11:00am 13.8 WNW 3 9 1010.4 - 0.2 - - 10 - - - -
19/10:59am 14.0 WNW 3 9 1010.3 - 0.2 - - 10 - - - -
19/10:44am 13.5 WSW 6 15 1010.3 - 0.2 - - 7 - - - -
19/10:30am 14.6 WSW 4 9 1010.2 - 0.0 - - 10 - - - -
19/10:00am 15.0 W 6 14 1010.1 - 0.0 - - 10 - - - -
19/09:30am 15.1 NNW 5 14 1010.1 - 0.0 - - 10 - - - -
19/09:00am 13.7 NNW 6 9 1010.1 - 0.0 - - 10 - - - -
19/08:30am 13.3 NNW 5 7 1010.1 - 0.0 - - 10 - - - -
19/08:00am 12.6 NNW 7 13 1009.9 - 0.0 - - 10 - - - -
19/07:30am 12.4 NNW 6 9 1009.7 - 0.0 - - 10 - - - -
19/07:00am 11.9 N 6 9 1009.7 - 0.0 - - 10 - - - -
19/06:30am 12.0 N 7 13 1009.7 - 0.0 - - 10 - - - -
19/06:00am 12.4 NW 8 15 1009.8 - 0.0 - - 10 - - - -
19/05:30am 12.3 NW 7 12 1010.1 - 0.0 - - 10 - - - -
19/05:00am 12.2 NW 8 13 1010.2 - 0.0 - - 10 - - - -
19/04:30am 12.5 NW 9 15 1010.3 - 0.0 - - 10 - - - -
19/04:00am 12.7 NW 8 14 1010.4 - 0.0 - - 10 - - - -
19/03:30am 12.7 NW 9 13 1010.7 - 0.0 - - 10 - - - -
19/03:00am 12.7 NNW 6 10 1010.9 - 0.0 - - 10 - - - -
19/02:30am 12.9 NNW 5 7 1011.3 - 0.0 - - 10 - - - -
19/02:00am 13.3 NW 6 10 1011.6 - 0.0 - - 10 - - - -
19/01:30am 13.6 NW 4 8 1011.9 - 0.0 - - 10 - - - -
19/01:00am 13.6 W 5 7 1012.1 - 0.0 - - 10 - - - -
19/12:30am 14.0 W 5 9 1012.1 - 0.0 - - 10 - - - -
19/12:00am 14.4 W 6 11 1012.2 - 0.0 - - 10 - - - -
 
Date/Time
EDT
Temp
°C
Wind Pressure Rain since
9am
mm
Weather Cloud Vis
km
Sea
Height
m
Swell
Dir  Spd
kts
Gust
kts
hPa Trend Height
m
Period
s
Dir
18/11:30pm 15.0 W 5 10 1012.1 - 0.0 - - 10 - - - -
18/11:00pm 15.7 W 5 9 1012.0 - 0.0 - - 10 - - - -
18/10:30pm 15.8 SW 3 8 1012.2 - 0.0 - - 10 - - - -
18/10:00pm 16.0 WSW 5 9 1012.2 - 0.0 - - 10 - - - -
18/09:30pm 15.8 WSW 4 8 1012.2 - 0.0 - - 10 - - - -
18/09:00pm 15.8 SSW 3 7 1012.0 - 0.0 - - 10 - - - -
18/08:30pm 15.9 S 5 10 1011.8 - 0.0 - - 10 - - - -
18/08:00pm 16.1 S 3 8 1011.4 - 0.0 - - 10 - - - -
18/07:30pm 16.3 S 7 13 1011.2 - 0.0 - - 10 - - - -
18/07:00pm 16.5 SSE 7 11 1010.8 - 0.0 - - 10 - - - -
18/06:30pm 16.8 SSE 7 14 1010.6 - 0.0 - - 10 - - - -
18/06:00pm 17.3 S 6 12 1010.4 - 0.0 - - 10 - - - -
18/05:30pm 17.5 SSE 5 10 1010.2 - 0.0 - - 10 - - - -
18/05:00pm 17.6 SSE 7 11 1010.5 - 0.0 - - 10 - - - -
18/04:30pm 17.7 S 5 11 1010.5 - 0.0 - - 10 - - - -
18/04:00pm 17.9 SSW 7 11 1010.8 - 0.0 - - 10 - - - -
18/03:30pm 17.5 S 9 14 1011.0 - 0.0 - - 10 - - - -
18/03:00pm 17.5 SSE 9 17 1011.2 - 0.0 Rain - 10 - - - -
18/02:30pm 17.1 SW 6 13 1011.1 - 0.0 - - 10 - - - -
18/02:00pm 17.0 SW 5 9 1011.1 - 0.0 - - 10 - - - -
18/01:30pm 16.5 SSW 6 10 1011.3 - 0.0 - - 10 - - - -
18/01:00pm 16.9 SSW 7 15 1011.4 - 0.0 - - 10 - - - -
18/12:30pm 17.6 SW 6 10 1011.2 - 0.0 - - 10 - - - -
18/12:00pm 16.9 S 8 14 1011.2 - 0.0 - - 10 - - - -
18/11:30am 16.7 SSW 7 13 1011.4 - 0.0 - - 10 - - - -
18/11:00am 16.3 SSW 6 11 1011.7 - 0.0 - - 10 - - - -
18/10:30am 17.3 WSW 4 8 1011.6 - 0.0 - - 10 - - - -
18/10:00am 15.6 W 6 11 1011.6 - 0.0 - - 10 - - - -
18/09:30am 15.6 WSW 5 11 1011.3 - 0.0 - - 10 - - - -
18/09:00am 14.8 WNW 5 10 1010.9 - 0.0 - - 10 - - - -
18/08:30am 14.4 W 5 8 1011.0 - 0.0 - - 10 - - - -
18/08:00am 13.6 W 5 10 1011.0 - 0.0 - - 10 - - - -
18/07:30am 13.6 W 5 9 1010.8 - 0.0 - - 10 - - - -
18/07:00am 13.7 WSW 3 8 1010.3 - 0.0 - - 10 - - - -
18/06:30am 14.0 WNW 3 6 1009.9 - 0.0 - - 10 - - - -
18/06:00am 14.5 W 5 10 1009.8 - 0.0 - - 10 - - - -
18/05:30am 15.2 W 5 9 1009.6 - 0.0 - - 10 - - - -
18/05:00am 15.5 W 4 8 1009.5 - 0.0 - - 10 - - - -
18/04:30am 15.7 WSW 5 11 1009.4 - 0.0 - - 10 - - - -
18/04:00am 16.1 WSW 5 10 1009.6 - 0.0 - - 10 - - - -
18/03:30am 16.4 WSW 4 8 1009.6 - 0.0 - - 10 - - - -
18/03:00am 16.4 WSW 5 11 1009.7 - 0.0 - - 10 - - - -
18/02:30am 16.5 W 4 8 1009.9 - 0.0 - - 10 - - - -
18/02:00am 16.6 SW 2 6 1010.0 - 0.0 - - 10 - - - -
18/01:30am 16.7 WSW 2 5 1010.2 - 0.0 - - 10 - - - -
18/01:00am 16.8 SW 4 7 1010.5 - 0.0 - - 10 - - - -
18/12:30am 17.1 SW 5 13 1010.6 - 0.0 - - 10 - - - -
18/12:00am 17.3 SW 5 9 1010.7 - 0.0 - - 10 - - - -
 
Date/Time
EDT
Temp
°C
Wind Pressure Rain since
9am
mm
Weather Cloud Vis
km
Sea
Height
m
Swell
Dir  Spd
kts
Gust
kts
hPa Trend Height
m
Period
s
Dir
17/11:30pm 17.5 SW 5 10 1010.8 - 0.0 - - 10 - - - -
17/11:00pm 17.8 SSW 8 13 1010.8 - 0.0 - - 10 - - - -
17/10:30pm 18.0 SW 5 9 1010.7 - 0.0 - - 10 - - - -
17/10:00pm 18.4 SW 7 15 1010.5 - 0.0 - - 10 - - - -
17/09:30pm 18.5 SSW 6 11 1010.1 - 0.0 - - 10 - - - -
17/09:00pm 18.0 S 6 11 1009.8 - 0.0 - - 10 - - - -
17/08:30pm 18.0 S 9 16 1009.1 - 0.0 - - 10 - - - -
17/08:00pm 18.9 S 8 15 1008.4 - 0.0 - - 10 - - - -
17/07:30pm 21.4 SSW 8 16 1007.7 - 0.0 - - 10 - - - -
17/07:00pm 23.5 S 2 6 1007.3 - 0.0 - - 10 - - - -
17/06:30pm 23.1 SSE 4 8 1007.3 - 0.0 - - 10 - - - -
17/06:00pm 23.6 SSW 7 12 1007.2 - 0.0 - - 10 - - - -
17/05:30pm 25.1 WSW 5 9 1006.9 - 0.0 - - 10 - - - -
17/05:00pm 25.1 SSW 3 8 1007.1 - 0.0 - - 10 - - - -
17/04:30pm 24.2 W 3 5 1007.4 - 0.0 - - 10 - - - -
17/04:00pm 23.9 SSE 4 7 1007.7 - 0.0 - - 10 - - - -
17/03:30pm 22.8 SSW 5 8 1008.2 - 0.0 - - 10 - - - -
17/03:00pm 21.9 S 6 11 1008.7 - 0.0 - - 10 - - - -
17/02:30pm 21.4 S 6 12 1009.1 - 0.0 - - 10 - - - -
17/02:00pm 21.1 SSW 7 11 1009.3 - 0.0 - - 10 - - - -
17/01:30pm 20.4 S 8 16 1009.4 - 0.0 - - 10 - - - -
17/01:00pm 20.4 S 8 13 1009.5 - 0.0 - - 10 - - - -
17/12:30pm 19.9 SSE 6 10 1009.6 - 0.0 - - 10 - - - -
17/12:00pm 19.6 SSW 5 8 1009.8 - 0.0 - - 10 - - - -
17/11:30am 20.0 SW 4 7 1009.9 - 0.0 - - 10 - - - -
17/11:00am 19.4 W 4 8 1010.0 - 0.0 - - 10 - - - -
17/10:30am 18.9 WSW 2 5 1010.0 - 0.0 - - 10 - - - -
17/10:00am 18.3 W 3 6 1009.9 - 0.0 - - 10 - - - -
17/09:30am 18.1 WSW 3 7 1010.0 - 0.0 - - 10 - - - -
17/09:00am 17.6 W 4 7 1009.8 - 0.0 - - 10 - - - -
17/08:30am 17.2 W 3 6 1009.4 - 0.0 - - 10 - - - -
17/08:00am 16.9 WSW 3 6 1009.2 - 0.0 - - 10 - - - -
17/07:30am 16.2 CALM 0 0 1009.3 - 0.0 - - 10 - - - -
17/07:00am 14.8 CALM 0 0 1008.9 - 0.0 - - 10 - - - -
17/06:30am 14.2 CALM 0 0 1008.6 - 0.0 - - 10 - - - -
17/06:00am 14.0 CALM 0 0 1008.1 - 0.0 - - 10 - - - -

Other Formats:

Comma delimited format used in spreadsheet applications
http://www.bom.gov.au/fwo/IDV60701/IDV60701.95936.axf

JavaScript Object Notation format (JSON) in row-major order
http://www.bom.gov.au/fwo/IDV60701/IDV60701.95936.json